Terminal Aerodrome Forecast
Issued by NWS

Home | Current Version | Previous Version | Text Only | Print | Product List | Glossary On
Versions: 1 2 3 4 5 6 7 8 9 10 11 12 13 14 15 16 17 18 19 20 21 22 23 24 25 26 27 28 29 30 31 32
000
FTUS44 KOUN 291300 AAA
TAFHBR
TAF AMD
KHBR 291300Z 2913/3012 VRB04KT P6SM SCT250
     FM291600 17008KT P6SM SCT035 BKN250
      TEMPO 2921/3001 6SM -TSRA BR BKN010CB
     FM300100 16007KT 6SM -TSRA BR BKN030CB
      TEMPO 3001/3005 2SM TSRA BR BKN010CB
     FM300600 16006KT P6SM OVC007=

USA.gov is the U.S. government's official web portal to all federal, state and local government web resources and services.